Time,TemperatureF,DewpointF,PressureIn,WindDirection,WindDirectionDegrees,WindSpeedMPH,WindSpeedGustMPH,Humidity,HourlyPrecipIn,Conditions,Clouds,dailyrainin,SoftwareType,DateUTC
2013-05-13 00:01:00,48.4,4.3,29.47,SSE,154,3.6,3.6,16,0.00,,CLR,0.00,VWS V14.01,2013-05-13 04:01:00,
2013-05-13 00:06:00,48.4,4.3,29.47,SE,135,0.0,0.0,16,0.00,,CLR,0.00,VWS V14.01,2013-05-13 04:06:00,
2013-05-13 00:11:00,48.2,4.1,29.47,NNW,330,0.0,3.1,16,0.00,,CLR,0.00,VWS V14.01,2013-05-13 04:11:00,
2013-05-13 00:16:00,48.0,5.3,29.47,SE,138,0.0,0.0,17,0.00,,CLR,0.00,VWS V14.01,2013-05-13 04:16:00,
2013-05-13 00:21:00,47.8,5.2,29.47,NNE,30,0.0,3.1,17,0.00,,CLR,0.00,VWS V14.01,2013-05-13 04:21:00,
2013-05-13 00:26:00,47.7,5.0,29.47,NW,324,0.0,0.0,17,0.00,,CLR,0.00,VWS V14.01,2013-05-13 04:26:00,
2013-05-13 00:31:00,47.7,5.0,29.47,ENE,70,0.0,2.7,17,0.00,,CLR,0.00,VWS V14.01,2013-05-13 04:31:00,
2013-05-13 00:36:00,47.5,4.8,29.47,WNW,297,0.0,0.0,17,0.00,,CLR,0.00,VWS V14.01,2013-05-13 04:36:00,
2013-05-13 00:41:00,47.5,4.8,29.47,NW,314,2.7,2.7,17,0.00,,CLR,0.00,VWS V14.01,2013-05-13 04:41:00,
2013-05-13 00:46:00,47.5,4.8,29.47,ESE,121,0.0,0.0,17,0.00,,CLR,0.00,VWS V14.01,2013-05-13 04:46:00,
2013-05-13 00:51:00,47.5,4.8,29.47,WNW,299,3.1,7.2,17,0.00,,CLR,0.00,VWS V14.01,2013-05-13 04:51:00,
2013-05-13 00:56:00,47.5,4.8,29.47,ESE,116,0.0,0.0,17,0.00,,CLR,0.00,VWS V14.01,2013-05-13 04:56:00,
2013-05-13 01:01:00,47.3,4.7,29.47,WNW,302,3.6,3.6,17,0.00,,CLR,0.00,VWS V14.01,2013-05-13 05:01:00,
2013-05-13 01:06:00,47.3,4.7,29.47,NNE,18,3.1,3.1,17,0.00,,CLR,0.00,VWS V14.01,2013-05-13 05:06:00,
2013-05-13 01:11:00,47.3,4.7,29.47,NW,325,0.0,0.0,17,0.00,,CLR,0.00,VWS V14.01,2013-05-13 05:11:00,
2013-05-13 01:16:00,47.1,4.6,29.47,SE,128,3.1,3.1,17,0.00,,CLR,0.00,VWS V14.01,2013-05-13 05:16:00,
2013-05-13 01:21:00,47.1,4.6,29.47,SE,130,3.6,4.0,17,0.00,,CLR,0.00,VWS V14.01,2013-05-13 05:21:00,
2013-05-13 01:26:00,47.1,4.6,29.50,NNW,329,3.1,4.0,17,0.00,,CLR,0.00,VWS V14.01,2013-05-13 05:26:00,
2013-05-13 01:31:00,46.9,4.4,29.50,North,6,0.0,0.0,17,0.00,,CLR,0.00,VWS V14.01,2013-05-13 05:31:00,
2013-05-13 01:36:00,46.9,4.4,29.50,NNE,17,0.0,2.2,17,0.00,,CLR,0.00,VWS V14.01,2013-05-13 05:36:00,
2013-05-13 01:41:00,46.8,4.3,29.50,SE,139,0.0,0.0,17,0.00,,CLR,0.00,VWS V14.01,2013-05-13 05:41:00,
2013-05-13 01:46:00,46.6,4.1,29.50,ENE,75,2.7,3.6,17,0.00,,CLR,0.00,VWS V14.01,2013-05-13 05:46:00,
2013-05-13 01:51:00,46.4,4.0,29.50,NW,316,0.0,0.0,17,0.00,,CLR,0.00,VWS V14.01,2013-05-13 05:51:00,
2013-05-13 01:56:00,46.2,3.8,29.47,SE,140,2.7,2.7,17,0.00,,CLR,0.00,VWS V14.01,2013-05-13 05:56:00,
2013-05-13 02:01:00,46.0,3.7,29.47,East,79,0.0,0.0,17,0.00,,CLR,0.00,VWS V14.01,2013-05-13 06:01:00,
2013-05-13 02:06:00,45.9,3.5,29.47,SSE,152,2.7,3.6,17,0.00,,CLR,0.00,VWS V14.01,2013-05-13 06:06:00,
2013-05-13 02:11:00,45.9,3.5,29.47,SE,135,4.0,5.4,17,0.00,,CLR,0.00,VWS V14.01,2013-05-13 06:11:00,
2013-05-13 02:16:00,45.9,3.5,29.47,NNE,27,0.0,2.7,17,0.00,,CLR,0.00,VWS V14.01,2013-05-13 06:16:00,
2013-05-13 02:21:00,45.7,3.4,29.47,East,89,0.0,0.0,17,0.00,,CLR,0.00,VWS V14.01,2013-05-13 06:21:00,
2013-05-13 02:26:00,45.5,3.2,29.47,SSE,153,0.0,0.0,17,0.00,,CLR,0.00,VWS V14.01,2013-05-13 06:26:00,
2013-05-13 02:31:00,45.3,3.1,29.47,SE,143,5.4,6.3,17,0.00,,CLR,0.00,VWS V14.01,2013-05-13 06:31:00,
2013-05-13 02:36:00,45.3,3.1,29.47,SE,136,2.7,4.0,17,0.00,,CLR,0.00,VWS V14.01,2013-05-13 06:36:00,
2013-05-13 02:41:00,45.1,2.9,29.47,SE,143,0.0,0.0,17,0.00,,CLR,0.00,VWS V14.01,2013-05-13 06:41:00,
2013-05-13 02:46:00,45.0,2.8,29.47,SE,141,2.2,3.6,17,0.00,,CLR,0.00,VWS V14.01,2013-05-13 06:46:00,
2013-05-13 02:51:00,44.8,2.6,29.47,SE,143,0.0,0.0,17,0.00,,CLR,0.00,VWS V14.01,2013-05-13 06:51:00,
2013-05-13 02:56:00,44.6,2.5,29.50,SSE,158,4.0,4.0,17,0.00,,CLR,0.00,VWS V14.01,2013-05-13 06:56:00,
2013-05-13 03:01:00,44.4,3.6,29.50,SSW,202,0.0,0.0,18,0.00,,CLR,0.00,VWS V14.01,2013-05-13 07:01:00,
2013-05-13 03:06:00,44.4,3.6,29.50,SE,124,0.0,0.0,18,0.00,,CLR,0.00,VWS V14.01,2013-05-13 07:06:00,
2013-05-13 03:11:00,44.2,3.4,29.50,SSE,154,0.0,0.0,18,0.00,,CLR,0.00,VWS V14.01,2013-05-13 07:11:00,
2013-05-13 03:16:00,44.2,3.4,29.50,SW,230,2.2,4.9,18,0.00,,CLR,0.00,VWS V14.01,2013-05-13 07:16:00,
2013-05-13 03:21:00,44.1,3.3,29.50,SE,129,0.0,0.0,18,0.00,,CLR,0.00,VWS V14.01,2013-05-13 07:21:00,
2013-05-13 03:26:00,43.9,3.1,29.50,SE,129,0.0,0.0,18,0.00,,CLR,0.00,VWS V14.01,2013-05-13 07:26:00,
2013-05-13 03:31:00,43.7,3.0,29.50,SE,133,2.2,2.2,18,0.00,,CLR,0.00,VWS V14.01,2013-05-13 07:31:00,
2013-05-13 03:36:00,43.5,2.8,29.50,ESE,123,0.0,0.0,18,0.00,,CLR,0.00,VWS V14.01,2013-05-13 07:36:00,
2013-05-13 03:41:00,43.5,2.8,29.47,NE,48,0.0,0.0,18,0.00,,CLR,0.00,VWS V14.01,2013-05-13 07:41:00,
2013-05-13 03:46:00,43.5,2.8,29.47,NNW,346,0.0,0.0,18,0.00,,CLR,0.00,VWS V14.01,2013-05-13 07:46:00,
2013-05-13 03:51:00,43.3,2.7,29.47,NNW,346,0.0,0.0,18,0.00,,CLR,0.00,VWS V14.01,2013-05-13 07:51:00,
2013-05-13 03:56:00,43.2,2.5,29.50,NNW,346,0.0,0.0,18,0.00,,CLR,0.00,VWS V14.01,2013-05-13 07:56:00,
2013-05-13 04:01:00,43.0,2.4,29.50,North,0,0.0,0.0,18,0.00,,CLR,0.00,VWS V14.01,2013-05-13 08:01:00,
2013-05-13 04:06:00,43.0,2.4,29.50,NNW,333,0.0,0.0,18,0.00,,CLR,0.00,VWS V14.01,2013-05-13 08:06:00,
2013-05-13 04:11:00,42.8,2.2,29.50,NNW,333,0.0,0.0,18,0.00,,CLR,0.00,VWS V14.01,2013-05-13 08:11:00,
2013-05-13 04:16:00,42.6,2.1,29.50,SE,142,0.0,0.0,18,0.00,,CLR,0.00,VWS V14.01,2013-05-13 08:16:00,
2013-05-13 04:21:00,42.4,1.9,29.50,SE,128,0.0,0.0,18,0.00,,CLR,0.00,VWS V14.01,2013-05-13 08:21:00,
2013-05-13 04:26:00,42.4,1.9,29.50,SE,128,0.0,0.0,18,0.00,,CLR,0.00,VWS V14.01,2013-05-13 08:26:00,
2013-05-13 04:31:00,42.1,1.6,29.50,SE,128,0.0,0.0,18,0.00,,CLR,0.00,VWS V14.01,2013-05-13 08:31:00,
2013-05-13 04:36:00,41.7,1.4,29.50,SE,128,0.0,0.0,18,0.00,,CLR,0.00,VWS V14.01,2013-05-13 08:36:00,
2013-05-13 04:41:00,41.2,0.9,29.50,SE,128,0.0,0.0,18,0.00,,CLR,0.00,VWS V14.01,2013-05-13 08:41:00,
2013-05-13 04:46:00,41.0,0.8,29.50,SE,128,0.0,0.0,18,0.00,,CLR,0.00,VWS V14.01,2013-05-13 08:46:00,
2013-05-13 04:51:00,40.5,3.6,29.50,SE,128,0.0,0.0,21,0.00,,CLR,0.00,VWS V14.01,2013-05-13 08:51:00,
2013-05-13 04:56:00,40.1,3.3,29.50,SE,128,0.0,0.0,21,0.00,,CLR,0.00,VWS V14.01,2013-05-13 08:56:00,
2013-05-13 05:01:00,39.7,3.0,29.50,SE,128,0.0,0.0,21,0.00,,CLR,0.00,VWS V14.01,2013-05-13 09:01:00,
2013-05-13 05:06:00,39.4,2.7,29.50,SE,128,0.0,0.0,21,0.00,,CLR,0.00,VWS V14.01,2013-05-13 09:06:00,
2013-05-13 05:11:00,39.4,2.7,29.53,SE,128,0.0,0.0,21,0.00,,CLR,0.00,VWS V14.01,2013-05-13 09:11:00,
2013-05-13 05:16:00,39.2,2.6,29.53,SE,128,0.0,0.0,21,0.00,,CLR,0.00,VWS V14.01,2013-05-13 09:16:00,
2013-05-13 05:21:00,39.2,2.6,29.53,SE,128,0.0,0.0,21,0.00,,CLR,0.00,VWS V14.01,2013-05-13 09:21:00,
2013-05-13 05:26:00,39.0,2.4,29.53,SE,128,0.0,0.0,21,0.00,,CLR,0.00,VWS V14.01,2013-05-13 09:26:00,
2013-05-13 05:31:00,38.8,2.3,29.53,SE,128,0.0,0.0,21,0.00,,CLR,0.00,VWS V14.01,2013-05-13 09:31:00,
2013-05-13 05:36:00,38.7,2.1,29.53,SE,128,0.0,0.0,21,0.00,,CLR,0.00,VWS V14.01,2013-05-13 09:36:00,
2013-05-13 05:41:00,38.7,2.1,29.53,SE,128,0.0,0.0,21,0.00,,CLR,0.00,VWS V14.01,2013-05-13 09:41:00,
2013-05-13 05:46:00,38.7,2.1,29.53,SE,128,0.0,0.0,21,0.00,,CLR,0.00,VWS V14.01,2013-05-13 09:46:00,
2013-05-13 05:51:00,38.7,5.0,29.53,SE,128,0.0,0.0,24,0.00,,CLR,0.00,VWS V14.01,2013-05-13 09:51:00,
2013-05-13 05:56:00,38.7,5.0,29.53,SE,128,0.0,0.0,24,0.00,,CLR,0.00,VWS V14.01,2013-05-13 09:56:00,
2013-05-13 06:01:00,38.7,9.2,29.53,SE,128,0.0,0.0,29,0.00,,CLR,0.00,VWS V14.01,2013-05-13 10:01:00,
2013-05-13 06:06:00,38.5,9.0,29.53,SE,128,0.0,0.0,29,0.00,,CLR,0.00,VWS V14.01,2013-05-13 10:06:00,
2013-05-13 06:11:00,38.1,8.7,29.53,SE,128,0.0,0.0,29,0.00,,CLR,0.00,VWS V14.01,2013-05-13 10:11:00,
2013-05-13 06:16:00,38.1,8.7,29.53,SE,128,0.0,0.0,29,0.00,,CLR,0.00,VWS V14.01,2013-05-13 10:16:00,
2013-05-13 06:21:00,38.1,8.7,29.53,SE,128,0.0,0.0,29,0.00,,CLR,0.00,VWS V14.01,2013-05-13 10:21:00,
2013-05-13 06:26:00,38.1,8.7,29.53,SE,128,0.0,0.0,29,0.00,,CLR,0.00,VWS V14.01,2013-05-13 10:26:00,
2013-05-13 06:31:00,38.1,8.7,29.53,SE,128,0.0,0.0,29,0.00,,CLR,0.00,VWS V14.01,2013-05-13 10:31:00,
2013-05-13 06:36:00,38.5,9.0,29.53,SE,128,0.0,0.0,29,0.00,,CLR,0.00,VWS V14.01,2013-05-13 10:36:00,
2013-05-13 06:41:00,38.7,9.2,29.53,SE,128,0.0,0.0,29,0.00,,CLR,0.00,VWS V14.01,2013-05-13 10:41:00,
2013-05-13 06:46:00,38.8,9.3,29.53,SE,128,0.0,0.0,29,0.00,,CLR,0.00,VWS V14.01,2013-05-13 10:46:00,
2013-05-13 06:51:00,39.4,9.8,29.53,SE,128,0.0,0.0,29,0.00,,CLR,0.00,VWS V14.01,2013-05-13 10:51:00,
2013-05-13 06:56:00,40.1,10.4,29.53,SE,128,0.0,0.0,29,0.00,,CLR,0.00,VWS V14.01,2013-05-13 10:56:00,
2013-05-13 07:01:00,41.0,10.4,29.53,SSE,158,0.0,0.0,28,0.00,,CLR,0.00,VWS V14.01,2013-05-13 11:01:00,
2013-05-13 07:06:00,41.7,4.7,29.53,NW,326,5.4,5.8,21,0.00,,CLR,0.00,VWS V14.01,2013-05-13 11:06:00,
2013-05-13 07:11:00,43.0,4.7,29.56,ENE,76,0.0,0.0,20,0.00,,CLR,0.00,VWS V14.01,2013-05-13 11:11:00,
2013-05-13 07:16:00,43.9,5.4,29.56,NNW,335,0.0,2.2,20,0.00,,CLR,0.00,VWS V14.01,2013-05-13 11:16:00,
2013-05-13 07:21:00,44.2,5.7,29.56,NE,34,0.0,2.7,20,0.00,,CLR,0.00,VWS V14.01,2013-05-13 11:21:00,
2013-05-13 07:26:00,44.6,6.0,29.56,NNE,15,0.0,0.0,20,0.00,,CLR,0.00,VWS V14.01,2013-05-13 11:26:00,
2013-05-13 07:31:00,44.8,6.2,29.56,NW,309,4.5,4.5,20,0.00,,CLR,0.00,VWS V14.01,2013-05-13 11:31:00,
2013-05-13 07:36:00,45.1,6.5,29.56,WNW,285,2.2,8.1,20,0.00,,CLR,0.00,VWS V14.01,2013-05-13 11:36:00,
2013-05-13 07:41:00,45.1,6.5,29.56,NW,325,3.1,5.8,20,0.00,,CLR,0.00,VWS V14.01,2013-05-13 11:41:00,
2013-05-13 07:46:00,45.3,6.6,29.56,NW,319,3.6,4.0,20,0.00,,CLR,0.00,VWS V14.01,2013-05-13 11:46:00,
2013-05-13 07:51:00,45.3,6.6,29.56,North,0,2.2,2.7,20,0.00,,CLR,0.00,VWS V14.01,2013-05-13 11:51:00,
2013-05-13 07:56:00,45.3,6.6,29.56,NW,316,6.3,6.3,20,0.00,,CLR,0.00,VWS V14.01,2013-05-13 11:56:00,
2013-05-13 08:01:00,45.5,6.8,29.56,SSE,148,3.1,3.6,20,0.00,,CLR,0.00,VWS V14.01,2013-05-13 12:01:00,
2013-05-13 08:06:00,45.7,6.9,29.56,NNW,333,3.1,4.0,20,0.00,,CLR,0.00,VWS V14.01,2013-05-13 12:06:00,
2013-05-13 08:11:00,45.9,7.1,29.56,NNE,19,2.2,2.7,20,0.00,,CLR,0.00,VWS V14.01,2013-05-13 12:11:00,
2013-05-13 08:16:00,45.9,7.1,29.56,ENE,64,0.0,2.2,20,0.00,,CLR,0.00,VWS V14.01,2013-05-13 12:16:00,
2013-05-13 08:21:00,46.0,7.2,29.56,SE,133,0.0,2.2,20,0.00,,CLR,0.00,VWS V14.01,2013-05-13 12:21:00,
2013-05-13 08:26:00,46.2,7.4,29.56,ENE,71,5.4,5.4,20,0.00,,CLR,0.00,VWS V14.01,2013-05-13 12:26:00,
2013-05-13 08:31:00,46.2,7.4,29.56,NW,307,3.1,3.1,20,0.00,,CLR,0.00,VWS V14.01,2013-05-13 12:31:00,
2013-05-13 08:36:00,46.2,7.4,29.56,NNE,25,5.8,5.8,20,0.00,,CLR,0.00,VWS V14.01,2013-05-13 12:36:00,
2013-05-13 08:41:00,46.6,6.5,29.56,North,353,4.9,4.9,19,0.00,,CLR,0.00,VWS V14.01,2013-05-13 12:41:00,
2013-05-13 08:46:00,46.9,6.8,29.56,West,272,2.7,5.4,19,0.00,,CLR,0.00,VWS V14.01,2013-05-13 12:46:00,
2013-05-13 08:53:00,47.3,7.1,29.56,East,82,2.7,4.0,19,0.00,,CLR,0.00,VWS V14.01,2013-05-13 12:53:00,
2013-05-13 08:58:00,47.3,7.1,29.56,NE,37,0.0,0.0,19,0.00,,CLR,0.00,VWS V14.01,2013-05-13 12:58:00,
2013-05-13 09:03:00,47.3,7.1,29.56,SE,131,0.0,2.7,19,0.00,,SCT050,0.00,VWS V14.01,2013-05-13 13:03:00,
2013-05-13 09:09:00,47.5,7.3,29.59,SSE,148,2.7,3.1,19,0.00,,SCT050,0.00,VWS V14.01,2013-05-13 13:09:00,
2013-05-13 09:14:00,48.4,8.0,29.59,SE,130,3.1,4.0,19,0.00,,SCT050,0.00,VWS V14.01,2013-05-13 13:14:00,
2013-05-13 09:20:00,49.3,8.8,29.59,ENE,68,4.0,4.0,19,0.00,,SCT050,0.00,VWS V14.01,2013-05-13 13:20:00,
2013-05-13 09:26:00,49.6,9.1,29.59,ENE,64,0.0,2.7,19,0.00,,SCT050,0.00,VWS V14.01,2013-05-13 13:26:00,
2013-05-13 09:33:00,49.3,8.8,29.59,East,99,5.8,5.8,19,0.00,,SCT050,0.00,VWS V14.01,2013-05-13 13:33:00,
2013-05-13 09:38:00,48.7,8.3,29.59,North,0,5.8,5.8,19,0.00,,SCT050,0.00,VWS V14.01,2013-05-13 13:38:00,
2013-05-13 09:43:00,49.1,8.6,29.59,North,9,2.7,2.7,19,0.00,,SCT050,0.00,VWS V14.01,2013-05-13 13:43:00,
2013-05-13 09:48:00,49.3,8.8,29.59,NW,308,3.1,11.0,19,0.00,,SCT050,0.00,VWS V14.01,2013-05-13 13:48:00,
2013-05-13 09:53:00,48.6,4.4,29.59,NW,310,5.4,7.6,16,0.00,,SCT050,0.00,VWS V14.01,2013-05-13 13:53:00,
2013-05-13 09:59:00,48.2,4.1,29.59,WNW,292,0.0,4.0,16,0.00,,SCT050,0.00,VWS V14.01,2013-05-13 13:59:00,
2013-05-13 10:04:00,48.4,4.3,29.59,NE,52,0.0,0.0,16,0.00,,SCT050,0.00,VWS V14.01,2013-05-13 14:04:00,
2013-05-13 10:10:00,48.6,4.4,29.59,ENE,65,4.0,4.0,16,0.00,,SCT050,0.00,VWS V14.01,2013-05-13 14:10:00,
2013-05-13 10:16:00,48.9,8.5,29.59,NW,309,2.7,2.7,19,0.00,,SCT050,0.00,VWS V14.01,2013-05-13 14:16:00,
2013-05-13 10:21:00,49.3,8.8,29.59,NE,53,5.8,5.8,19,0.00,,SCT050,0.00,VWS V14.01,2013-05-13 14:21:00,
2013-05-13 10:27:00,49.5,8.9,29.59,NNW,346,2.2,2.2,19,0.00,,SCT050,0.00,VWS V14.01,2013-05-13 14:27:00,
2013-05-13 10:33:00,49.6,9.1,29.59,SE,146,7.6,7.6,19,0.00,,SCT050,0.00,VWS V14.01,2013-05-13 14:33:00,
2013-05-13 10:38:00,50.0,9.4,29.59,NW,317,3.6,3.6,19,0.00,,SCT050,0.00,VWS V14.01,2013-05-13 14:38:00,
2013-05-13 10:43:00,50.2,9.5,29.59,East,99,5.8,5.8,19,0.00,,SCT050,0.00,VWS V14.01,2013-05-13 14:43:00,
2013-05-13 10:48:00,50.0,9.4,29.59,NNW,328,2.2,3.6,19,0.00,,SCT050,0.00,VWS V14.01,2013-05-13 14:48:00,
2013-05-13 10:53:00,50.2,9.5,29.59,ENE,62,0.0,3.6,19,0.00,,SCT050,0.00,VWS V14.01,2013-05-13 14:53:00,
2013-05-13 10:58:00,50.7,10.0,29.59,ESE,113,5.4,5.4,19,0.00,,SCT050,0.00,VWS V14.01,2013-05-13 14:58:00,
2013-05-13 11:04:00,51.1,10.3,29.59,NE,45,5.4,5.4,19,0.00,,SCT050,0.00,VWS V14.01,2013-05-13 15:04:00,
2013-05-13 11:09:00,50.7,10.0,29.59,SE,133,0.0,6.7,19,0.00,,SCT050,0.00,VWS V14.01,2013-05-13 15:09:00,
2013-05-13 11:14:00,50.5,9.8,29.59,NNW,337,2.7,5.4,19,0.00,,SCT050,0.00,VWS V14.01,2013-05-13 15:14:00,
2013-05-13 11:20:00,50.4,9.7,29.59,NW,308,2.2,2.7,19,0.00,,SCT050,0.00,VWS V14.01,2013-05-13 15:20:00,
2013-05-13 11:25:00,50.5,9.8,29.59,West,264,0.0,0.0,19,0.00,,SCT050,0.00,VWS V14.01,2013-05-13 15:25:00,
2013-05-13 11:30:00,50.7,10.0,29.59,SE,146,2.7,2.7,19,0.00,,SCT050,0.00,VWS V14.01,2013-05-13 15:30:00,
2013-05-13 11:35:00,51.1,10.3,29.59,East,99,0.0,0.0,19,0.00,,SCT050,0.00,VWS V14.01,2013-05-13 15:35:00,
2013-05-13 11:40:00,51.6,10.7,29.59,NW,318,2.2,3.1,19,0.00,,SCT050,0.00,VWS V14.01,2013-05-13 15:40:00,
2013-05-13 11:46:00,51.8,9.7,29.59,NNW,343,2.7,4.9,18,0.00,,SCT050,0.00,VWS V14.01,2013-05-13 15:46:00,
2013-05-13 11:52:00,51.3,10.4,29.59,NW,304,4.9,4.9,19,0.00,,SCT050,0.00,VWS V14.01,2013-05-13 15:52:00,
2013-05-13 11:57:00,50.9,10.1,29.59,East,96,2.7,4.0,19,0.00,,SCT050,0.00,VWS V14.01,2013-05-13 15:57:00,
2013-05-13 12:03:00,50.9,10.1,29.59,SE,146,7.6,7.6,19,0.00,,SCT050,0.00,VWS V14.01,2013-05-13 16:03:00,
2013-05-13 12:08:00,52.3,10.1,29.59,SE,142,3.1,3.1,18,0.00,,SCT050,0.00,VWS V14.01,2013-05-13 16:08:00,
2013-05-13 12:13:00,53.4,11.0,29.59,NNW,329,6.3,7.2,18,0.00,,SCT050,0.00,VWS V14.01,2013-05-13 16:13:00,
2013-05-13 12:19:00,53.1,10.7,29.59,NNE,17,2.2,3.6,18,0.00,,SCT050,0.00,VWS V14.01,2013-05-13 16:19:00,
2013-05-13 12:26:00,52.3,10.1,29.56,NW,322,0.0,0.0,18,0.00,,SCT050,0.00,VWS V14.01,2013-05-13 16:26:00,
2013-05-13 12:32:00,53.2,10.9,29.56,WNW,301,2.2,4.0,18,0.00,,SCT050,0.00,VWS V14.01,2013-05-13 16:32:00,
2013-05-13 12:37:00,53.4,11.0,29.56,NW,318,10.5,10.5,18,0.00,,SCT050,0.00,VWS V14.01,2013-05-13 16:37:00,
2013-05-13 12:43:00,53.6,11.1,29.56,NNW,330,4.0,4.9,18,0.00,,SCT050,0.00,VWS V14.01,2013-05-13 16:43:00,
2013-05-13 12:48:00,54.3,11.7,29.56,NE,34,0.0,2.7,18,0.00,,SCT050,0.00,VWS V14.01,2013-05-13 16:48:00,
2013-05-13 12:54:00,53.8,11.3,29.56,WNW,286,2.7,4.0,18,0.00,,SCT050,0.00,VWS V14.01,2013-05-13 16:54:00,
2013-05-13 13:00:00,53.6,11.1,29.56,SSE,155,0.0,3.1,18,0.00,,SCT050,0.00,VWS V14.01,2013-05-13 17:00:00,
2013-05-13 13:07:00,54.1,11.6,29.56,ENE,57,3.1,3.6,18,0.00,,SCT050,0.00,VWS V14.01,2013-05-13 17:07:00,
2013-05-13 13:12:00,54.3,11.7,29.56,NW,326,3.1,3.1,18,0.00,,SCT050,0.00,VWS V14.01,2013-05-13 17:12:00,
2013-05-13 13:18:00,53.6,11.1,29.56,NNW,334,3.6,3.6,18,0.00,,SCT050,0.00,VWS V14.01,2013-05-13 17:18:00,
2013-05-13 13:23:00,53.4,11.0,29.56,South,178,4.0,4.0,18,0.00,,SCT050,0.00,VWS V14.01,2013-05-13 17:23:00,
2013-05-13 13:28:00,53.6,11.1,29.56,SSW,202,3.1,3.1,18,0.00,,SCT050,0.00,VWS V14.01,2013-05-13 17:28:00,
2013-05-13 13:34:00,53.8,11.3,29.56,NNW,333,5.8,5.8,18,0.00,,SCT050,0.00,VWS V14.01,2013-05-13 17:34:00,
2013-05-13 13:40:00,54.1,11.6,29.56,SSE,151,3.1,4.9,18,0.00,,SCT050,0.00,VWS V14.01,2013-05-13 17:40:00,
2013-05-13 13:45:00,54.5,11.9,29.56,NNW,346,2.7,2.7,18,0.00,,SCT050,0.00,VWS V14.01,2013-05-13 17:45:00,
2013-05-13 13:51:00,54.1,11.6,29.56,SE,137,4.0,4.0,18,0.00,,SCT050,0.00,VWS V14.01,2013-05-13 17:51:00,
2013-05-13 13:56:00,53.8,11.3,29.56,NNW,328,6.3,6.3,18,0.00,,SCT050,0.00,VWS V14.01,2013-05-13 17:56:00,
2013-05-13 14:03:00,53.2,10.9,29.56,North,0,3.1,5.4,18,0.00,,SCT050,0.00,VWS V14.01,2013-05-13 18:03:00,
2013-05-13 14:08:00,53.2,10.9,29.56,West,271,2.7,2.7,18,0.00,,SCT050,0.00,VWS V14.01,2013-05-13 18:08:00,
2013-05-13 14:14:00,53.6,11.1,29.56,SE,129,0.0,2.2,18,0.00,,SCT050,0.00,VWS V14.01,2013-05-13 18:14:00,
2013-05-13 14:19:00,53.1,10.7,29.56,NNW,331,5.4,5.4,18,0.00,,SCT050,0.00,VWS V14.01,2013-05-13 18:19:00,
2013-05-13 14:25:00,52.9,10.6,29.56,NNE,28,3.1,3.6,18,0.00,,SCT050,0.00,VWS V14.01,2013-05-13 18:25:00,
2013-05-13 14:30:00,53.1,10.7,29.56,NNW,346,4.0,4.0,18,0.00,,SCT050,0.00,VWS V14.01,2013-05-13 18:30:00,
2013-05-13 14:36:00,53.2,10.9,29.56,NNE,15,2.2,6.3,18,0.00,,OVC070,0.00,VWS V14.01,2013-05-13 18:36:00,
2013-05-13 14:41:00,53.4,11.0,29.56,NE,50,3.6,3.6,18,0.00,,OVC070,0.00,VWS V14.01,2013-05-13 18:41:00,
2013-05-13 14:46:00,54.0,11.4,29.56,SE,130,3.6,5.8,18,0.00,,OVC070,0.00,VWS V14.01,2013-05-13 18:46:00,
2013-05-13 14:51:00,54.1,11.6,29.56,North,10,10.5,10.5,18,0.00,,OVC070,0.00,VWS V14.01,2013-05-13 18:51:00,
2013-05-13 14:56:00,54.0,11.4,29.56,ESE,106,2.7,3.6,18,0.00,,OVC070,0.00,VWS V14.01,2013-05-13 18:56:00,
2013-05-13 15:01:00,53.8,11.3,29.56,NNE,28,7.6,7.6,18,0.00,,OVC070,0.00,VWS V14.01,2013-05-13 19:01:00,
2013-05-13 15:06:00,53.4,11.0,29.56,WNW,293,4.9,4.9,18,0.00,,OVC080,0.00,VWS V14.01,2013-05-13 19:06:00,
2013-05-13 15:11:00,53.2,10.9,29.56,West,265,2.7,4.0,18,0.00,,OVC080,0.00,VWS V14.01,2013-05-13 19:11:00,
2013-05-13 15:16:00,53.4,11.0,29.56,NW,325,7.2,7.2,18,0.00,,OVC080,0.00,VWS V14.01,2013-05-13 19:16:00,
2013-05-13 15:21:00,53.8,11.3,29.56,ENE,71,7.2,15.0,18,0.00,,OVC080,0.00,VWS V14.01,2013-05-13 19:21:00,
2013-05-13 15:26:00,53.2,10.9,29.56,NW,322,4.0,5.4,18,0.00,,OVC080,0.00,VWS V14.01,2013-05-13 19:26:00,
2013-05-13 15:31:00,53.1,10.7,29.56,SE,135,3.1,3.1,18,0.00,,OVC080,0.00,VWS V14.01,2013-05-13 19:31:00,
2013-05-13 15:36:00,52.9,10.6,29.56,NW,317,5.4,10.5,18,0.00,,OVC080,0.00,VWS V14.01,2013-05-13 19:36:00,
2013-05-13 15:41:00,52.2,10.0,29.56,NW,309,4.0,4.0,18,0.00,,OVC080,0.00,VWS V14.01,2013-05-13 19:41:00,
2013-05-13 15:46:00,52.2,10.0,29.56,NNW,331,2.7,3.6,18,0.00,,OVC080,0.00,VWS V14.01,2013-05-13 19:46:00,
2013-05-13 15:51:00,52.0,9.8,29.56,NNW,339,3.6,8.1,18,0.00,,OVC080,0.00,VWS V14.01,2013-05-13 19:51:00,
2013-05-13 15:56:00,52.2,10.0,29.56,NE,41,2.2,4.0,18,0.00,,OVC080,0.00,VWS V14.01,2013-05-13 19:56:00,
2013-05-13 16:01:00,52.5,10.2,29.56,SSE,151,10.1,10.1,18,0.00,,OVC080,0.00,VWS V14.01,2013-05-13 20:01:00,
2013-05-13 16:06:00,52.9,10.6,29.56,NW,324,3.1,3.1,18,0.00,,BKN090,0.00,VWS V14.01,2013-05-13 20:06:00,
2013-05-13 16:11:00,53.2,10.9,29.56,NW,309,7.6,8.3,18,0.00,,BKN090,0.00,VWS V14.01,2013-05-13 20:11:00,
2013-05-13 16:16:00,52.7,10.4,29.56,WNW,299,8.1,8.1,18,0.00,,BKN090,0.00,VWS V14.01,2013-05-13 20:16:00,
2013-05-13 16:21:00,51.6,10.7,29.56,NNW,329,0.0,0.0,19,0.00,,BKN090,0.00,VWS V14.01,2013-05-13 20:21:00,
2013-05-13 16:26:00,51.6,10.7,29.56,NW,313,3.6,4.0,19,0.00,,BKN090,0.00,VWS V14.01,2013-05-13 20:26:00,
2013-05-13 16:31:00,51.6,10.7,29.56,East,86,0.0,3.1,19,0.00,,BKN090,0.00,VWS V14.01,2013-05-13 20:31:00,
2013-05-13 16:36:00,52.2,10.0,29.56,West,273,4.0,4.0,18,0.00,,BKN090,0.00,VWS V14.01,2013-05-13 20:36:00,
2013-05-13 16:41:00,52.7,10.4,29.56,SSE,156,3.6,3.6,18,0.00,,BKN090,0.00,VWS V14.01,2013-05-13 20:41:00,
2013-05-13 16:46:00,52.9,10.6,29.56,East,79,3.1,6.3,18,0.00,,BKN090,0.00,VWS V14.01,2013-05-13 20:46:00,
2013-05-13 16:51:00,52.7,10.4,29.56,West,280,3.1,8.3,18,0.00,,BKN090,0.00,VWS V14.01,2013-05-13 20:51:00,
2013-05-13 16:56:00,52.0,9.8,29.56,NW,313,5.8,5.8,18,0.00,,BKN090,0.00,VWS V14.01,2013-05-13 20:56:00,
2013-05-13 17:01:00,51.6,10.7,29.56,South,183,6.3,7.6,19,0.00,,BKN090,0.00,VWS V14.01,2013-05-13 21:01:00,
2013-05-13 17:06:00,51.4,10.6,29.56,WNW,300,2.7,4.9,19,0.00,,BKN100,0.00,VWS V14.01,2013-05-13 21:06:00,
2013-05-13 17:11:00,51.4,10.6,29.56,NW,325,0.0,2.7,19,0.00,,BKN100,0.00,VWS V14.01,2013-05-13 21:11:00,
2013-05-13 17:16:00,51.3,10.4,29.56,North,5,4.0,4.5,19,0.00,,BKN100,0.00,VWS V14.01,2013-05-13 21:16:00,
2013-05-13 17:21:00,51.1,10.3,29.56,WNW,287,2.7,5.4,19,0.00,,BKN100,0.00,VWS V14.01,2013-05-13 21:21:00,
2013-05-13 17:26:00,51.3,10.4,29.56,WNW,291,2.7,5.8,19,0.00,,BKN100,0.00,VWS V14.01,2013-05-13 21:26:00,
2013-05-13 17:31:00,52.0,9.8,29.56,ESE,121,2.7,4.0,18,0.00,,BKN100,0.00,VWS V14.01,2013-05-13 21:31:00,
2013-05-13 17:36:00,52.5,10.2,29.56,North,353,4.9,5.8,18,0.00,,BKN100,0.00,VWS V14.01,2013-05-13 21:36:00,
2013-05-13 17:41:00,52.9,10.6,29.56,WNW,286,8.1,8.1,18,0.00,,BKN100,0.00,VWS V14.01,2013-05-13 21:41:00,
2013-05-13 17:46:00,52.9,10.6,29.56,NW,307,2.7,7.2,18,0.00,,BKN100,0.00,VWS V14.01,2013-05-13 21:46:00,
2013-05-13 17:51:00,52.7,10.4,29.56,North,0,3.1,4.9,18,0.00,,BKN100,0.00,VWS V14.01,2013-05-13 21:51:00,
2013-05-13 17:56:00,52.5,10.2,29.56,NNW,346,0.0,3.1,18,0.00,,BKN100,0.00,VWS V14.01,2013-05-13 21:56:00,
2013-05-13 18:01:00,52.2,10.0,29.56,NNW,345,0.0,0.0,18,0.00,,BKN100,0.00,VWS V14.01,2013-05-13 22:01:00,
2013-05-13 18:06:00,51.8,9.7,29.56,South,169,5.8,5.8,18,0.00,,BKN095,0.00,VWS V14.01,2013-05-13 22:06:00,
2013-05-13 18:11:00,51.4,10.6,29.56,SE,142,3.1,3.6,19,0.00,,BKN095,0.00,VWS V14.01,2013-05-13 22:11:00,
2013-05-13 18:16:00,51.3,10.4,29.56,NW,309,3.1,5.8,19,0.00,,BKN095,0.00,VWS V14.01,2013-05-13 22:16:00,
2013-05-13 18:21:00,50.9,10.1,29.56,NW,310,3.6,7.6,19,0.00,,BKN095,0.00,VWS V14.01,2013-05-13 22:21:00,
2013-05-13 18:26:00,50.0,9.4,29.56,North,350,2.2,5.4,19,0.00,,BKN095,0.00,VWS V14.01,2013-05-13 22:26:00,
2013-05-13 18:31:00,49.3,5.0,29.56,NW,318,0.0,3.1,16,0.00,,BKN095,0.00,VWS V14.01,2013-05-13 22:31:00,
2013-05-13 18:36:00,48.7,4.6,29.56,NNW,345,5.8,5.8,16,0.00,,BKN095,0.00,VWS V14.01,2013-05-13 22:36:00,
2013-05-13 18:41:00,48.4,4.3,29.56,WNW,302,3.1,3.1,16,0.00,,BKN095,0.00,VWS V14.01,2013-05-13 22:41:00,
2013-05-13 18:46:00,48.2,7.9,29.56,North,0,3.1,3.6,19,0.00,,BKN095,0.00,VWS V14.01,2013-05-13 22:46:00,
2013-05-13 18:51:00,48.2,4.1,29.56,NNW,332,3.1,5.4,16,0.00,,BKN095,0.00,VWS V14.01,2013-05-13 22:51:00,
2013-05-13 18:56:00,48.2,7.9,29.56,West,281,6.3,8.3,19,0.00,,BKN095,0.00,VWS V14.01,2013-05-13 22:56:00,
2013-05-13 19:01:00,48.2,7.9,29.56,NW,311,2.7,3.6,19,0.00,,SCT090,0.00,VWS V14.01,2013-05-13 23:01:00,
2013-05-13 19:06:00,48.2,7.9,29.56,North,8,2.2,2.7,19,0.00,,SCT090,0.00,VWS V14.01,2013-05-13 23:06:00,
2013-05-13 19:11:00,48.2,7.9,29.56,SSE,155,3.6,4.5,19,0.00,,SCT090,0.00,VWS V14.01,2013-05-13 23:11:00,
2013-05-13 19:17:00,48.4,4.3,29.56,North,8,0.0,6.3,16,0.00,,SCT090,0.00,VWS V14.01,2013-05-13 23:17:00,
2013-05-13 19:22:00,48.4,4.3,29.56,WNW,296,2.7,2.7,16,0.00,,SCT090,0.00,VWS V14.01,2013-05-13 23:22:00,
2013-05-13 19:28:00,48.4,4.3,29.59,NNW,337,2.2,3.1,16,0.00,,SCT090,0.00,VWS V14.01,2013-05-13 23:28:00,
2013-05-13 19:33:00,48.2,4.1,29.59,NW,310,0.0,0.0,16,0.00,,SCT090,0.00,VWS V14.01,2013-05-13 23:33:00,
2013-05-13 19:38:00,48.2,4.1,29.59,NW,314,4.0,5.8,16,0.00,,SCT090,0.00,VWS V14.01,2013-05-13 23:38:00,
2013-05-13 19:43:00,48.0,5.3,29.59,WNW,298,0.0,0.0,17,0.00,,SCT090,0.00,VWS V14.01,2013-05-13 23:43:00,
2013-05-13 19:48:00,47.8,5.2,29.59,WNW,299,0.0,0.0,17,0.00,,SCT090,0.00,VWS V14.01,2013-05-13 23:48:00,
2013-05-13 19:53:00,47.7,5.0,29.59,WNW,299,0.0,0.0,17,0.00,,SCT090,0.00,VWS V14.01,2013-05-13 23:53:00,
2013-05-13 19:58:00,47.5,4.8,29.59,NE,44,0.0,0.0,17,0.00,,SCT090,0.00,VWS V14.01,2013-05-13 23:58:00,
2013-05-13 20:03:00,47.3,4.7,29.59,NNW,331,0.0,0.0,17,0.00,,CLR,0.00,VWS V14.01,2013-05-14 00:03:00,
2013-05-13 20:08:00,47.1,4.6,29.59,NNW,331,0.0,0.0,17,0.00,,CLR,0.00,VWS V14.01,2013-05-14 00:08:00,
2013-05-13 20:13:00,46.8,4.3,29.59,NNW,338,0.0,0.0,17,0.00,,CLR,0.00,VWS V14.01,2013-05-14 00:13:00,
2013-05-13 20:18:00,46.6,4.1,29.59,ENE,77,0.0,0.0,17,0.00,,CLR,0.00,VWS V14.01,2013-05-14 00:18:00,
2013-05-13 20:23:00,46.2,3.8,29.59,ENE,58,0.0,0.0,17,0.00,,CLR,0.00,VWS V14.01,2013-05-14 00:23:00,
2013-05-13 20:28:00,46.0,3.7,29.59,NNW,330,0.0,0.0,17,0.00,,CLR,0.00,VWS V14.01,2013-05-14 00:28:00,
2013-05-13 20:33:00,46.0,3.7,29.59,NNE,17,0.0,0.0,17,0.00,,CLR,0.00,VWS V14.01,2013-05-14 00:33:00,
2013-05-13 20:38:00,45.9,3.5,29.59,North,349,0.0,0.0,17,0.00,,CLR,0.00,VWS V14.01,2013-05-14 00:38:00,
2013-05-13 20:43:00,45.7,3.4,29.59,North,349,0.0,0.0,17,0.00,,CLR,0.00,VWS V14.01,2013-05-14 00:43:00,
2013-05-13 20:48:00,45.3,3.1,29.59,North,349,0.0,0.0,17,0.00,,CLR,0.00,VWS V14.01,2013-05-14 00:48:00,
2013-05-13 20:53:00,45.3,3.1,29.62,NW,315,3.1,3.1,17,0.00,,CLR,0.00,VWS V14.01,2013-05-14 00:53:00,
2013-05-13 20:58:00,45.1,2.9,29.62,West,279,0.0,0.0,17,0.00,,CLR,0.00,VWS V14.01,2013-05-14 00:58:00,
2013-05-13 21:03:00,45.1,2.9,29.62,WNW,297,0.0,0.0,17,0.00,,FEW100,0.00,VWS V14.01,2013-05-14 01:03:00,
2013-05-13 21:08:00,45.0,2.8,29.62,NE,55,0.0,0.0,17,0.00,,FEW100,0.00,VWS V14.01,2013-05-14 01:08:00,
2013-05-13 21:13:00,44.8,2.6,29.62,SE,124,0.0,0.0,17,0.00,,FEW100,0.00,VWS V14.01,2013-05-14 01:13:00,
2013-05-13 21:18:00,44.8,2.6,29.62,North,353,0.0,0.0,17,0.00,,FEW100,0.00,VWS V14.01,2013-05-14 01:18:00,
2013-05-13 21:23:00,44.6,2.5,29.62,NE,38,0.0,0.0,17,0.00,,FEW100,0.00,VWS V14.01,2013-05-14 01:23:00,
2013-05-13 21:28:00,44.4,3.6,29.62,NE,41,0.0,0.0,18,0.00,,FEW100,0.00,VWS V14.01,2013-05-14 01:28:00,
2013-05-13 21:33:00,44.4,3.6,29.62,NW,308,6.3,6.3,18,0.00,,FEW100,0.00,VWS V14.01,2013-05-14 01:33:00,
2013-05-13 21:38:00,44.2,3.4,29.62,NW,324,0.0,0.0,18,0.00,,FEW100,0.00,VWS V14.01,2013-05-14 01:38:00,
2013-05-13 21:43:00,44.1,3.3,29.62,NNW,335,0.0,3.1,18,0.00,,FEW100,0.00,VWS V14.01,2013-05-14 01:43:00,
2013-05-13 21:48:00,43.9,3.1,29.62,NNW,339,0.0,0.0,18,0.00,,FEW100,0.00,VWS V14.01,2013-05-14 01:48:00,
2013-05-13 21:53:00,43.9,5.4,29.65,East,85,0.0,0.0,20,0.00,,FEW100,0.00,VWS V14.01,2013-05-14 01:53:00,
2013-05-13 21:58:00,43.7,5.3,29.65,NNE,15,0.0,0.0,20,0.00,,FEW100,0.00,VWS V14.01,2013-05-14 01:58:00,
2013-05-13 22:03:00,43.5,5.1,29.65,NE,48,0.0,0.0,20,0.00,,CLR,0.00,VWS V14.01,2013-05-14 02:03:00,
2013-05-13 22:08:00,43.5,5.1,29.65,NW,321,0.0,0.0,20,0.00,,CLR,0.00,VWS V14.01,2013-05-14 02:08:00,
2013-05-13 22:13:00,43.3,5.0,29.65,NW,310,2.2,2.2,20,0.00,,CLR,0.00,VWS V14.01,2013-05-14 02:13:00,
2013-05-13 22:18:00,43.2,4.8,29.65,NE,43,0.0,0.0,20,0.00,,CLR,0.00,VWS V14.01,2013-05-14 02:18:00,
2013-05-13 22:23:00,43.0,4.7,29.65,NW,306,2.7,2.7,20,0.00,,CLR,0.00,VWS V14.01,2013-05-14 02:23:00,
2013-05-13 22:28:00,42.8,4.5,29.65,NW,306,0.0,0.0,20,0.00,,CLR,0.00,VWS V14.01,2013-05-14 02:28:00,
2013-05-13 22:33:00,42.6,5.4,29.65,NW,306,0.0,0.0,21,0.00,,CLR,0.00,VWS V14.01,2013-05-14 02:33:00,
2013-05-13 22:38:00,42.3,5.1,29.65,NW,306,0.0,0.0,21,0.00,,CLR,0.00,VWS V14.01,2013-05-14 02:38:00,
2013-05-13 22:43:00,42.3,5.1,29.65,NNW,335,0.0,3.1,21,0.00,,CLR,0.00,VWS V14.01,2013-05-14 02:43:00,
2013-05-13 22:48:00,42.3,5.1,29.65,WNW,301,0.0,0.0,21,0.00,,CLR,0.00,VWS V14.01,2013-05-14 02:48:00,
2013-05-13 22:53:00,42.1,5.0,29.65,NNE,22,0.0,0.0,21,0.00,,CLR,0.00,VWS V14.01,2013-05-14 02:53:00,
2013-05-13 22:58:00,42.1,5.0,29.65,NW,315,0.0,0.0,21,0.00,,CLR,0.00,VWS V14.01,2013-05-14 02:58:00,
2013-05-13 23:03:00,41.9,4.8,29.65,North,353,0.0,0.0,21,0.00,,CLR,0.00,VWS V14.01,2013-05-14 03:03:00,
2013-05-13 23:08:00,41.7,4.7,29.65,SE,131,0.0,0.0,21,0.00,,CLR,0.00,VWS V14.01,2013-05-14 03:08:00,
2013-05-13 23:13:00,41.7,4.7,29.65,NW,308,0.0,0.0,21,0.00,,CLR,0.00,VWS V14.01,2013-05-14 03:13:00,
2013-05-13 23:18:00,41.5,4.5,29.65,NW,305,0.0,0.0,21,0.00,,CLR,0.00,VWS V14.01,2013-05-14 03:18:00,
2013-05-13 23:23:00,41.5,4.5,29.65,NE,50,0.0,0.0,21,0.00,,CLR,0.00,VWS V14.01,2013-05-14 03:23:00,
2013-05-13 23:28:00,41.4,4.4,29.65,NNE,31,0.0,3.6,21,0.00,,CLR,0.00,VWS V14.01,2013-05-14 03:28:00,
2013-05-13 23:33:00,41.4,4.4,29.65,North,6,0.0,0.0,21,0.00,,CLR,0.00,VWS V14.01,2013-05-14 03:33:00,
2013-05-13 23:38:00,41.4,6.4,29.65,West,273,0.0,2.7,23,0.00,,CLR,0.00,VWS V14.01,2013-05-14 03:38:00,
2013-05-13 23:43:00,41.2,6.2,29.65,NW,317,2.7,2.7,23,0.00,,CLR,0.00,VWS V14.01,2013-05-14 03:43:00,
2013-05-13 23:48:00,41.2,6.2,29.65,NNW,331,2.2,2.2,23,0.00,,CLR,0.00,VWS V14.01,2013-05-14 03:48:00,
2013-05-13 23:53:00,41.0,6.1,29.65,NW,313,0.0,0.0,23,0.00,,CLR,0.00,VWS V14.01,2013-05-14 03:53:00,
2013-05-13 23:58:00,41.0,6.1,29.65,NW,319,3.1,3.1,23,0.00,,CLR,0.00,VWS V14.01,2013-05-14 03:58:00,